createdAt,value
2022-12-31T00:01:19.330Z,28.50
2022-12-31T00:03:47.475Z,28.40
2022-12-31T00:06:26.391Z,29.60
2022-12-31T00:08:56.253Z,26.30
2022-12-31T00:11:26.185Z,29.00
2022-12-31T00:13:54.982Z,25.00
2022-12-31T00:16:27.857Z,25.60
2022-12-31T00:18:59.434Z,27.80
2022-12-31T00:21:30.230Z,23.80
2022-12-31T00:23:58.588Z,24.80
2022-12-31T00:26:32.767Z,27.10
2022-12-31T00:29:02.329Z,25.10
2022-12-31T00:31:33.508Z,22.70
2022-12-31T00:34:02.570Z,23.50
2022-12-31T00:36:34.844Z,27.70
2022-12-31T00:39:05.229Z,26.30
2022-12-31T00:41:33.332Z,26.40
2022-12-31T00:44:01.642Z,23.80
2022-12-31T00:46:29.799Z,25.10
2022-12-31T00:48:58.021Z,29.30
2022-12-31T00:51:27.744Z,24.60
2022-12-31T00:53:57.388Z,27.10
2022-12-31T00:56:28.519Z,29.20
2022-12-31T00:58:57.523Z,29.70
2022-12-31T01:01:31.885Z,35.00
2022-12-31T01:04:20.630Z,33.70
2022-12-31T01:06:49.385Z,33.10
2022-12-31T01:09:18.250Z,29.10
2022-12-31T01:14:18.213Z,30.80
2022-12-31T01:16:49.178Z,26.10
2022-12-31T01:19:22.860Z,27.70
2022-12-31T01:21:51.504Z,24.60
2022-12-31T01:24:20.936Z,25.30
2022-12-31T01:26:51.599Z,19.50
2022-12-31T01:29:19.695Z,21.70
2022-12-31T01:31:47.739Z,20.60
2022-12-31T01:34:15.995Z,23.90
2022-12-31T01:36:45.521Z,23.60
2022-12-31T01:39:13.538Z,19.90
2022-12-31T01:41:44.798Z,21.00
2022-12-31T01:44:12.717Z,22.20
2022-12-31T01:46:46.897Z,19.80
2022-12-31T01:49:24.014Z,16.50
2022-12-31T01:52:02.668Z,17.70
2022-12-31T01:54:35.092Z,26.00
2022-12-31T01:57:05.317Z,20.10
2022-12-31T01:59:34.459Z,15.90
2022-12-31T02:02:03.332Z,17.80
2022-12-31T02:04:31.533Z,15.40
2022-12-31T02:07:04.334Z,15.60
2022-12-31T02:09:34.091Z,19.20
2022-12-31T02:12:02.402Z,16.90
2022-12-31T02:14:38.882Z,18.80
2022-12-31T02:17:48.623Z,18.30
2022-12-31T02:20:40.483Z,19.80
2022-12-31T02:23:41.873Z,18.90
2022-12-31T02:26:37.559Z,21.40
2022-12-31T02:29:29.657Z,20.20
2022-12-31T02:32:02.967Z,19.10
2022-12-31T02:35:02.641Z,17.40
2022-12-31T02:37:33.646Z,17.00
2022-12-31T02:40:02.937Z,24.50
2022-12-31T02:42:30.941Z,21.50
2022-12-31T02:44:58.925Z,18.80
2022-12-31T02:47:45.367Z,19.20
2022-12-31T02:50:25.734Z,17.70
2022-12-31T02:53:18.809Z,16.70
2022-12-31T02:55:58.045Z,14.20
2022-12-31T02:59:00.501Z,15.40
2022-12-31T03:01:54.248Z,15.60
2022-12-31T03:04:32.484Z,16.90
2022-12-31T03:07:03.943Z,14.50
2022-12-31T03:09:32.404Z,18.60
2022-12-31T03:12:20.397Z,18.80
2022-12-31T03:14:48.919Z,21.30
2022-12-31T03:17:16.898Z,18.40
2022-12-31T03:20:04.911Z,17.00
2022-12-31T03:22:37.666Z,16.80
2022-12-31T03:25:34.022Z,17.20
2022-12-31T03:28:06.117Z,13.60
2022-12-31T03:30:35.978Z,13.90
2022-12-31T03:33:05.797Z,17.90
2022-12-31T03:35:36.082Z,17.30
2022-12-31T03:38:04.431Z,14.50
2022-12-31T03:40:35.055Z,16.50
2022-12-31T03:43:03.077Z,13.50
2022-12-31T03:45:31.206Z,17.30
2022-12-31T03:47:59.454Z,14.00
2022-12-31T03:50:27.536Z,13.60
2022-12-31T03:52:55.926Z,13.10
2022-12-31T03:55:25.051Z,16.50
2022-12-31T03:57:53.119Z,18.00
2022-12-31T04:00:22.467Z,13.10
2022-12-31T04:02:51.166Z,17.50
2022-12-31T04:05:20.570Z,15.80
2022-12-31T04:07:49.460Z,17.50
2022-12-31T04:10:18.675Z,13.50
2022-12-31T04:12:46.741Z,11.20
2022-12-31T04:15:20.574Z,11.90
2022-12-31T04:17:49.020Z,11.20
2022-12-31T04:20:17.233Z,10.20
2022-12-31T04:22:45.405Z,11.90
2022-12-31T04:25:13.604Z,11.90
2022-12-31T04:27:43.908Z,12.20
2022-12-31T04:30:13.462Z,9.60
2022-12-31T04:32:41.834Z,10.20
2022-12-31T04:35:11.703Z,9.80
2022-12-31T04:37:39.764Z,13.50
2022-12-31T04:40:09.133Z,10.00
2022-12-31T04:42:37.423Z,8.80
2022-12-31T04:45:06.096Z,7.60
2022-12-31T04:47:34.153Z,7.40
2022-12-31T04:50:02.156Z,9.30
2022-12-31T04:52:30.287Z,8.60
2022-12-31T04:54:58.573Z,25.70
2022-12-31T04:57:26.760Z,21.90
2022-12-31T04:59:54.832Z,22.40
2022-12-31T05:02:23.121Z,27.00
2022-12-31T05:04:51.405Z,22.50
2022-12-31T05:07:19.464Z,18.10
2022-12-31T05:09:47.572Z,40.80
2022-12-31T05:12:15.595Z,54.50
2022-12-31T05:14:43.618Z,59.50
2022-12-31T05:17:11.812Z,21.40
2022-12-31T05:19:39.891Z,13.90
2022-12-31T05:22:26.774Z,21.70
2022-12-31T05:24:55.238Z,23.80
2022-12-31T05:27:23.787Z,26.70
2022-12-31T05:29:51.783Z,27.10
2022-12-31T05:32:19.774Z,26.30
2022-12-31T05:34:47.911Z,43.00
2022-12-31T05:37:16.040Z,30.00
2022-12-31T05:39:44.616Z,35.00
2022-12-31T05:42:12.649Z,24.20
2022-12-31T05:44:40.614Z,20.10
2022-12-31T05:47:08.720Z,14.60
2022-12-31T05:49:36.919Z,11.60
2022-12-31T05:52:05.057Z,81.30
2022-12-31T05:54:33.184Z,35.70
2022-12-31T05:57:01.159Z,32.50
2022-12-31T05:59:30.167Z,15.60
2022-12-31T06:01:58.348Z,14.20
2022-12-31T06:04:26.888Z,13.90
2022-12-31T06:06:55.077Z,8.40
2022-12-31T06:09:23.513Z,8.60
2022-12-31T06:11:51.668Z,11.80
2022-12-31T06:14:19.783Z,11.60
2022-12-31T06:16:47.975Z,12.40
2022-12-31T06:19:16.121Z,15.90
2022-12-31T06:21:44.129Z,17.00
2022-12-31T06:24:12.374Z,16.90
2022-12-31T06:26:40.365Z,20.20
2022-12-31T06:29:09.096Z,16.00
2022-12-31T06:31:37.552Z,16.30
2022-12-31T06:34:05.585Z,15.50
2022-12-31T06:36:33.701Z,12.20
2022-12-31T06:39:03.239Z,13.70
2022-12-31T06:41:32.358Z,14.00
2022-12-31T06:46:28.621Z,11.10
2022-12-31T06:48:56.713Z,17.10
2022-12-31T06:51:25.496Z,19.90
2022-12-31T06:53:53.485Z,19.60
2022-12-31T06:56:31.372Z,21.50
2022-12-31T06:59:03.101Z,17.20
2022-12-31T07:01:57.520Z,21.70
2022-12-31T07:04:41.728Z,15.10
2022-12-31T07:07:17.569Z,17.70
2022-12-31T07:10:27.306Z,17.70
2022-12-31T07:13:20.568Z,20.20
2022-12-31T07:16:36.449Z,22.80
2022-12-31T07:19:36.841Z,17.80
2022-12-31T07:22:10.955Z,32.40
2022-12-31T07:24:39.204Z,31.80
2022-12-31T07:27:13.099Z,36.60
2022-12-31T07:30:03.004Z,40.20
2022-12-31T07:32:40.281Z,41.20
2022-12-31T07:35:35.044Z,38.30
2022-12-31T07:38:22.159Z,50.70
2022-12-31T07:41:02.795Z,44.80
2022-12-31T07:43:55.107Z,46.70
2022-12-31T07:46:35.897Z,45.30
2022-12-31T07:49:10.640Z,42.90
2022-12-31T07:51:39.203Z,31.00
2022-12-31T07:54:13.604Z,25.10
2022-12-31T07:56:44.116Z,21.80
2022-12-31T07:59:24.501Z,16.60
2022-12-31T08:02:24.812Z,14.70
2022-12-31T08:05:22.651Z,11.00
2022-12-31T08:08:08.916Z,12.00
2022-12-31T08:11:10.144Z,12.10
2022-12-31T08:13:41.675Z,8.20
2022-12-31T08:16:12.356Z,6.20
2022-12-31T08:18:41.075Z,5.70
2022-12-31T08:21:48.235Z,6.80
2022-12-31T08:24:25.169Z,6.80
2022-12-31T08:27:35.011Z,5.30
2022-12-31T08:30:09.370Z,7.90
2022-12-31T08:33:06.462Z,4.80
2022-12-31T08:35:50.930Z,7.10
2022-12-31T08:38:36.075Z,10.20
2022-12-31T08:41:21.956Z,9.10
2022-12-31T08:44:05.832Z,7.00
2022-12-31T08:46:45.883Z,13.30
2022-12-31T08:49:14.973Z,13.10
2022-12-31T08:51:43.074Z,9.60
2022-12-31T08:54:12.454Z,11.30
2022-12-31T08:56:50.486Z,8.30
2022-12-31T08:59:44.158Z,10.30
2022-12-31T09:02:24.431Z,13.30
2022-12-31T09:04:58.581Z,10.70
2022-12-31T09:07:47.596Z,11.20
2022-12-31T09:10:16.046Z,11.20
2022-12-31T09:12:58.817Z,11.00
2022-12-31T09:16:05.521Z,11.90
2022-12-31T09:18:38.310Z,8.70
2022-12-31T09:21:08.846Z,8.10
2022-12-31T09:23:37.394Z,11.60
2022-12-31T09:26:15.927Z,10.10
2022-12-31T09:29:06.991Z,13.10
2022-12-31T09:32:00.222Z,8.20
2022-12-31T09:34:37.352Z,7.10
2022-12-31T09:37:19.753Z,6.70
2022-12-31T09:39:49.150Z,6.80
2022-12-31T09:42:48.617Z,7.30
2022-12-31T09:45:40.741Z,10.20
2022-12-31T09:48:36.781Z,8.80
2022-12-31T09:51:25.421Z,9.90
2022-12-31T09:54:16.121Z,13.20
2022-12-31T09:56:59.158Z,13.90
2022-12-31T09:59:33.160Z,14.60
2022-12-31T10:02:18.423Z,13.90
2022-12-31T10:05:08.864Z,12.90
2022-12-31T10:08:18.608Z,7.80
2022-12-31T10:10:54.884Z,11.00
2022-12-31T10:13:29.737Z,10.20
2022-12-31T10:16:13.107Z,6.40
2022-12-31T10:19:04.254Z,7.70
2022-12-31T10:22:02.360Z,7.70
2022-12-31T10:24:53.356Z,9.90
2022-12-31T10:27:49.711Z,9.60
2022-12-31T10:30:21.520Z,7.90
2022-12-31T10:33:31.715Z,8.30
2022-12-31T10:36:15.956Z,14.70
2022-12-31T10:39:12.798Z,10.90
2022-12-31T10:41:49.325Z,8.00
2022-12-31T10:44:42.151Z,6.40
2022-12-31T10:47:34.191Z,5.00
2022-12-31T10:50:33.569Z,3.90
2022-12-31T10:53:39.610Z,6.60
2022-12-31T10:56:46.371Z,5.60
2022-12-31T10:59:47.711Z,11.20
2022-12-31T11:02:40.735Z,9.40
2022-12-31T11:05:37.763Z,6.10
2022-12-31T11:08:17.778Z,5.20
2022-12-31T11:11:40.452Z,4.80
2022-12-31T11:14:21.135Z,3.90
2022-12-31T11:17:08.370Z,4.90
2022-12-31T11:19:57.844Z,4.10
2022-12-31T11:23:02.639Z,3.80
2022-12-31T11:25:48.187Z,5.40
2022-12-31T11:28:27.478Z,4.00
2022-12-31T11:31:20.201Z,4.70
2022-12-31T11:34:07.611Z,7.70
2022-12-31T11:36:55.008Z,6.40
2022-12-31T11:39:54.402Z,6.60
2022-12-31T11:42:49.970Z,4.30
2022-12-31T11:45:39.261Z,10.50
2022-12-31T11:48:31.554Z,25.00
2022-12-31T11:51:12.427Z,10.70
2022-12-31T11:54:08.028Z,13.90
2022-12-31T11:56:41.305Z,13.20
2022-12-31T11:59:19.241Z,16.10
2022-12-31T12:04:36.172Z,14.40
2022-12-31T12:07:13.672Z,15.80
2022-12-31T12:09:44.938Z,15.10
2022-12-31T12:12:13.531Z,15.00
2022-12-31T12:14:44.251Z,16.10
2022-12-31T12:17:20.219Z,9.50
2022-12-31T12:19:55.185Z,9.90
2022-12-31T12:22:25.989Z,11.50
2022-12-31T12:25:05.001Z,14.10
2022-12-31T12:27:35.949Z,19.20
2022-12-31T12:30:21.857Z,24.50
2022-12-31T12:33:04.807Z,13.30
2022-12-31T12:35:35.200Z,19.50
2022-12-31T12:38:06.585Z,20.20
2022-12-31T12:40:35.574Z,18.20
2022-12-31T12:43:04.170Z,19.20
2022-12-31T12:45:51.788Z,18.00
2022-12-31T12:48:35.650Z,29.10
2022-12-31T12:51:32.083Z,33.90
2022-12-31T12:54:08.999Z,30.10
2022-12-31T12:56:46.120Z,25.70
2022-12-31T12:59:36.103Z,23.00
2022-12-31T13:02:40.144Z,23.70
2022-12-31T13:05:40.255Z,23.60
2022-12-31T13:08:36.657Z,22.10
2022-12-31T13:11:04.774Z,31.70
2022-12-31T13:14:11.554Z,28.80
2022-12-31T13:17:01.371Z,28.70
2022-12-31T13:19:38.661Z,20.50
2022-12-31T13:22:38.862Z,15.40
2022-12-31T13:25:42.212Z,16.60
2022-12-31T13:28:13.944Z,24.70
2022-12-31T13:30:46.036Z,14.60
2022-12-31T13:33:21.058Z,12.40
2022-12-31T13:35:54.047Z,12.80
2022-12-31T13:38:34.145Z,13.30
2022-12-31T13:41:33.534Z,16.40
2022-12-31T13:44:32.830Z,18.30
2022-12-31T13:47:27.718Z,15.80
2022-12-31T13:50:15.199Z,15.00
2022-12-31T13:53:05.020Z,16.20
2022-12-31T13:55:38.434Z,19.40
2022-12-31T13:58:34.104Z,36.50
2022-12-31T14:01:17.326Z,33.40
2022-12-31T14:04:10.141Z,24.30
2022-12-31T14:06:45.879Z,27.50
2022-12-31T14:09:20.698Z,28.00
2022-12-31T14:12:07.351Z,27.70
2022-12-31T14:14:35.416Z,27.90
2022-12-31T14:17:23.545Z,35.70
2022-12-31T14:20:17.809Z,36.70
2022-12-31T14:23:03.085Z,29.60
2022-12-31T14:26:00.305Z,50.80
2022-12-31T14:28:31.895Z,34.10
2022-12-31T14:31:12.803Z,43.80
2022-12-31T14:33:57.182Z,38.10
2022-12-31T14:36:34.689Z,53.80
2022-12-31T14:39:42.631Z,71.20
2022-12-31T14:42:35.453Z,54.60
2022-12-31T14:45:22.428Z,40.60
2022-12-31T14:48:14.114Z,42.90
2022-12-31T14:50:46.420Z,46.30
2022-12-31T14:53:24.242Z,35.70
2022-12-31T14:56:24.783Z,33.30
2022-12-31T14:58:58.751Z,22.50
2022-12-31T15:01:27.526Z,20.00
2022-12-31T15:03:58.273Z,19.10
2022-12-31T15:06:48.022Z,20.90
2022-12-31T15:09:43.134Z,24.30
2022-12-31T15:12:32.758Z,14.80
2022-12-31T15:15:25.904Z,14.50
2022-12-31T15:18:05.368Z,16.80
2022-12-31T15:20:48.605Z,16.40
2022-12-31T15:23:25.550Z,15.70
2022-12-31T15:25:59.803Z,21.50
2022-12-31T15:28:35.393Z,20.30
2022-12-31T15:31:11.749Z,23.50
2022-12-31T15:34:01.478Z,28.90
2022-12-31T15:36:41.102Z,31.60
2022-12-31T15:39:12.226Z,23.90
2022-12-31T15:42:10.395Z,32.70
2022-12-31T15:44:50.274Z,24.70
2022-12-31T15:47:33.931Z,25.00
2022-12-31T15:50:06.635Z,24.30
2022-12-31T15:52:50.658Z,23.60
2022-12-31T15:55:33.760Z,20.70
2022-12-31T15:58:09.948Z,22.70
2022-12-31T16:01:10.111Z,19.80
2022-12-31T16:03:44.023Z,20.90
2022-12-31T16:06:14.860Z,28.40
2022-12-31T16:08:49.928Z,21.90
2022-12-31T16:11:18.577Z,27.00
2022-12-31T16:13:51.067Z,18.80
2022-12-31T16:16:28.662Z,13.10
2022-12-31T16:18:58.511Z,11.20
2022-12-31T16:21:34.663Z,29.00
2022-12-31T16:24:05.640Z,24.10
2022-12-31T16:26:54.879Z,18.60
2022-12-31T16:29:24.203Z,17.80
2022-12-31T16:31:53.851Z,16.70
2022-12-31T16:34:24.907Z,22.80
2022-12-31T16:36:56.131Z,25.80
2022-12-31T16:39:28.262Z,47.70
2022-12-31T16:42:08.651Z,67.80
2022-12-31T16:44:36.879Z,45.10
2022-12-31T16:47:07.383Z,49.00
2022-12-31T16:49:39.039Z,47.00
2022-12-31T16:52:27.308Z,51.00
2022-12-31T16:54:57.372Z,58.50
2022-12-31T16:57:29.035Z,44.70
2022-12-31T17:00:06.979Z,45.40
2022-12-31T17:02:39.239Z,42.40
2022-12-31T17:05:28.244Z,45.30
2022-12-31T17:07:56.457Z,51.30
2022-12-31T17:10:36.579Z,45.10
2022-12-31T17:13:30.259Z,45.10
2022-12-31T17:16:01.246Z,26.90
2022-12-31T17:18:38.030Z,22.70
2022-12-31T17:21:09.747Z,42.20
2022-12-31T17:23:40.051Z,41.40
2022-12-31T17:26:24.500Z,38.20
2022-12-31T17:28:54.920Z,29.90
2022-12-31T17:31:40.384Z,21.60
2022-12-31T17:34:14.631Z,19.30
2022-12-31T17:37:03.391Z,22.00
2022-12-31T17:39:49.793Z,17.80
2022-12-31T17:42:28.585Z,23.30
2022-12-31T17:45:07.272Z,19.00
2022-12-31T17:50:17.121Z,20.60
2022-12-31T17:52:45.267Z,28.90
2022-12-31T17:55:13.392Z,23.60
2022-12-31T17:57:57.254Z,26.60
2022-12-31T18:00:27.127Z,22.40
2022-12-31T18:02:55.494Z,26.00
2022-12-31T18:05:25.228Z,26.90
2022-12-31T18:07:53.533Z,26.90
2022-12-31T18:10:24.851Z,23.90
2022-12-31T18:12:53.361Z,18.80
2022-12-31T18:15:23.797Z,19.30
2022-12-31T18:17:51.847Z,16.70
2022-12-31T18:20:20.090Z,17.80
2022-12-31T18:22:48.240Z,14.30
2022-12-31T18:25:19.946Z,13.20
2022-12-31T18:27:49.177Z,12.70
2022-12-31T18:30:17.801Z,15.10
2022-12-31T18:38:13.178Z,15.60
2022-12-31T18:40:44.477Z,16.40
2022-12-31T18:43:17.449Z,19.00
2022-12-31T18:45:47.173Z,13.10
2022-12-31T18:48:16.274Z,10.10
2022-12-31T18:50:45.724Z,12.00
2022-12-31T18:53:20.011Z,11.50
2022-12-31T18:55:52.901Z,16.40
2022-12-31T18:58:21.814Z,15.50
2022-12-31T19:03:23.019Z,10.70
2022-12-31T19:05:52.075Z,10.50
2022-12-31T19:08:22.224Z,16.80
2022-12-31T19:10:52.167Z,15.80
2022-12-31T19:13:21.184Z,14.90
2022-12-31T19:15:51.678Z,16.20
2022-12-31T19:18:19.873Z,20.60
2022-12-31T19:20:47.960Z,20.40
2022-12-31T19:23:19.047Z,19.50
2022-12-31T19:25:48.352Z,17.70
2022-12-31T19:28:19.724Z,14.50
2022-12-31T19:30:47.997Z,18.80
2022-12-31T19:33:16.789Z,26.00
2022-12-31T19:38:23.640Z,25.70
2022-12-31T19:40:53.276Z,24.80
2022-12-31T19:43:23.142Z,22.30
2022-12-31T19:45:52.008Z,23.80
2022-12-31T19:48:25.965Z,21.90
2022-12-31T19:51:00.305Z,24.60
2022-12-31T19:53:29.069Z,24.20
2022-12-31T19:55:57.075Z,38.00
2022-12-31T19:58:26.572Z,46.60
2022-12-31T20:01:02.025Z,38.70
2022-12-31T20:03:33.214Z,34.80
2022-12-31T20:06:07.753Z,33.70
2022-12-31T20:08:37.941Z,27.40
2022-12-31T20:11:12.832Z,26.80
2022-12-31T20:13:41.827Z,27.20
2022-12-31T20:16:15.947Z,21.10
2022-12-31T20:18:46.130Z,22.60
2022-12-31T20:21:20.151Z,21.50
2022-12-31T20:23:49.818Z,25.00
2022-12-31T20:26:19.230Z,26.10
2022-12-31T20:28:47.634Z,30.80
2022-12-31T20:31:18.958Z,29.80
2022-12-31T20:33:47.235Z,29.10
2022-12-31T20:36:17.349Z,25.90
2022-12-31T20:38:46.313Z,27.70
2022-12-31T20:43:45.637Z,21.60
2022-12-31T20:46:24.856Z,23.90
2022-12-31T20:48:55.735Z,24.30
2022-12-31T20:51:24.337Z,27.10
2022-12-31T20:53:55.485Z,24.50
2022-12-31T20:56:25.488Z,30.90
2022-12-31T20:58:53.520Z,27.70
2022-12-31T21:01:22.345Z,25.90
2022-12-31T21:04:04.751Z,25.40
2022-12-31T21:06:35.058Z,21.80
2022-12-31T21:09:05.880Z,25.50
2022-12-31T21:11:53.124Z,25.30
2022-12-31T21:14:21.457Z,25.30
2022-12-31T21:16:49.572Z,23.90
2022-12-31T21:19:17.570Z,22.20
2022-12-31T21:21:45.621Z,21.60
2022-12-31T21:24:16.400Z,21.30
2022-12-31T21:26:48.337Z,20.60
2022-12-31T21:29:16.700Z,22.30
2022-12-31T21:31:44.749Z,30.30
2022-12-31T21:34:12.782Z,25.90
2022-12-31T21:36:40.784Z,26.40
2022-12-31T21:39:08.756Z,26.20
2022-12-31T21:41:52.036Z,26.90
2022-12-31T21:44:25.429Z,27.20
2022-12-31T21:47:37.468Z,31.40
2022-12-31T21:50:08.155Z,29.80
2022-12-31T21:55:23.896Z,27.40
2022-12-31T21:58:24.812Z,36.10
2022-12-31T22:00:59.816Z,29.10
2022-12-31T22:03:28.713Z,27.20
2022-12-31T22:06:05.825Z,34.20
2022-12-31T22:08:33.994Z,35.00
2022-12-31T22:11:02.494Z,36.50
2022-12-31T22:13:30.646Z,38.50
2022-12-31T22:16:04.783Z,56.60
2022-12-31T22:18:38.946Z,36.80
2022-12-31T22:21:18.475Z,35.10
2022-12-31T22:23:50.620Z,35.40
2022-12-31T22:26:21.293Z,45.90
2022-12-31T22:28:50.636Z,45.30
2022-12-31T22:31:21.851Z,39.40
2022-12-31T22:33:50.289Z,37.40
2022-12-31T22:36:21.013Z,38.00
2022-12-31T22:38:50.933Z,34.30
2022-12-31T22:41:21.223Z,35.50
2022-12-31T22:43:52.829Z,36.40
2022-12-31T22:46:28.290Z,35.80
2022-12-31T22:49:01.255Z,37.00
2022-12-31T22:51:55.696Z,37.30
2022-12-31T22:54:18.544Z,38.40
2022-12-31T22:56:46.634Z,39.00
2022-12-31T22:59:14.622Z,36.40
2022-12-31T23:01:42.804Z,38.90
2022-12-31T23:04:12.186Z,35.10
2022-12-31T23:06:46.353Z,39.80
2022-12-31T23:09:35.362Z,38.00
2022-12-31T23:12:06.747Z,42.20
2022-12-31T23:14:54.157Z,39.10
2022-12-31T23:17:44.566Z,39.20
2022-12-31T23:20:36.565Z,37.80
2022-12-31T23:23:08.416Z,50.30
2022-12-31T23:25:48.305Z,67.00
2022-12-31T23:28:20.336Z,31.30
2022-12-31T23:30:49.129Z,38.40
2022-12-31T23:33:25.195Z,30.80
2022-12-31T23:36:06.253Z,40.00
2022-12-31T23:38:34.608Z,30.80
2022-12-31T23:41:12.129Z,32.40
2022-12-31T23:43:40.251Z,38.50
2022-12-31T23:46:08.323Z,33.20
2022-12-31T23:48:36.395Z,36.20
2022-12-31T23:51:05.069Z,29.90
2022-12-31T23:53:33.251Z,31.00
2022-12-31T23:56:22.793Z,31.70
2022-12-31T23:58:55.822Z,32.90
